Time;durP1;ratioP1;P1;durP2;ratioP2;P2;SDS_P1;SDS_P2;PMS_P1;PMS_P2;Temp;Humidity;BMP_temperature;BMP_pressure;BME280_temperature;BME280_humidity;BME280_pressure;Samples;Min_cycle;Max_cycle;Signal;HPM_P1;HPM_P2
2023/12/05 00:01:48;;;;;;;14.83;10.83;;;4.70;99.90;;;;;;5057000;28;20595;-79
2023/12/05 00:04:14;;;;;;;10.33;9.33;;;4.70;99.90;;;;;;5054212;28;20202;-79
2023/12/05 00:06:39;;;;;;;11.60;10.40;;;4.70;99.90;;;;;;5054516;28;20220;-79
2023/12/05 00:09:05;;;;;;;13.20;10.43;;;4.70;99.90;;;;;;5037550;28;20185;-79
2023/12/05 00:11:31;;;;;;;11.57;9.00;;;4.70;99.90;;;;;;5054520;28;20211;-79
2023/12/05 00:13:56;;;;;;;12.70;11.13;;;4.70;99.90;;;;;;5054136;28;20621;-79
2023/12/05 00:16:22;;;;;;;11.37;10.13;;;4.70;99.90;;;;;;5054331;28;20720;-79
2023/12/05 00:18:49;;;;;;;13.47;12.07;;;4.80;99.90;;;;;;5037792;28;20645;-79
2023/12/05 00:21:18;;;;;;;11.43;9.35;;;4.80;99.90;;;;;;5072119;28;20173;-79
2023/12/05 00:23:44;;;;;;;10.70;9.60;;;4.90;99.90;;;;;;5072028;28;20835;-79
2023/12/05 00:26:10;;;;;;;10.00;8.07;;;4.80;99.90;;;;;;5054004;28;20274;-79
2023/12/05 00:28:35;;;;;;;10.40;9.30;;;4.90;99.90;;;;;;5072100;28;20199;-79
2023/12/05 00:31:01;;;;;;;11.93;10.50;;;4.90;99.90;;;;;;5037665;28;20255;-79
2023/12/05 00:33:27;;;;;;;11.20;10.10;;;4.90;99.90;;;;;;5033768;28;20197;-79
2023/12/05 00:35:52;;;;;;;10.33;8.93;;;4.90;99.90;;;;;;5048661;28;20204;-79
2023/12/05 00:38:18;;;;;;;11.07;10.00;;;4.90;99.90;;;;;;5071776;28;20845;-79
2023/12/05 00:40:44;;;;;;;12.30;9.47;;;4.90;99.90;;;;;;5072022;28;20514;-79
2023/12/05 00:43:10;;;;;;;13.13;11.33;;;4.90;99.90;;;;;;5053528;28;20954;-80
2023/12/05 00:45:35;;;;;;;11.23;10.00;;;4.90;99.90;;;;;;5071831;28;20646;-80
2023/12/05 00:48:01;;;;;;;13.67;12.00;;;4.90;99.90;;;;;;5053601;28;20226;-80
2023/12/05 00:50:27;;;;;;;10.20;8.57;;;5.00;99.90;;;;;;5053938;28;20338;-79
2023/12/05 00:52:52;;;;;;;9.70;8.70;;;5.00;99.90;;;;;;5071887;28;20176;-80
2023/12/05 00:55:18;;;;;;;10.50;8.90;;;5.00;99.90;;;;;;5053341;28;20216;-79
2023/12/05 00:57:44;;;;;;;10.30;8.73;;;5.00;99.90;;;;;;5056834;28;20171;-80
2023/12/05 01:00:10;;;;;;;12.37;9.60;;;5.00;99.90;;;;;;5037189;28;20242;-79
2023/12/05 01:02:36;;;;;;;11.10;9.55;;;5.00;99.90;;;;;;5036951;28;20177;-80
2023/12/05 01:05:02;;;;;;;13.00;10.70;;;5.00;99.90;;;;;;5053095;28;20554;-80
2023/12/05 01:07:28;;;;;;;15.10;12.82;;;5.00;99.90;;;;;;5052536;28;20184;-80
2023/12/05 01:09:54;;;;;;;11.70;10.50;;;5.00;99.90;;;;;;5071125;28;20180;-80
2023/12/05 01:12:20;;;;;;;10.60;9.18;;;5.00;99.90;;;;;;5071489;28;20775;-80
2023/12/05 01:14:46;;;;;;;15.23;12.10;;;5.00;99.90;;;;;;5053050;28;20226;-79
2023/12/05 01:17:11;;;;;;;13.53;11.40;;;5.00;99.90;;;;;;5053371;28;20176;-79
2023/12/05 01:19:38;;;;;;;12.87;11.10;;;5.00;99.90;;;;;;5071862;28;20215;-79
2023/12/05 01:22:04;;;;;;;14.15;11.73;;;5.00;99.90;;;;;;5053448;28;21143;-80
2023/12/05 01:24:30;;;;;;;9.57;8.57;;;5.00;99.90;;;;;;5070853;28;20214;-79
2023/12/05 01:26:55;;;;;;;12.27;10.00;;;5.10;99.90;;;;;;5053119;28;20196;-80
2023/12/05 01:29:21;;;;;;;12.53;10.17;;;5.10;99.90;;;;;;5066822;28;21148;-80
2023/12/05 01:31:47;;;;;;;11.73;8.98;;;5.10;99.90;;;;;;5053314;28;20180;-80
2023/12/05 01:34:13;;;;;;;13.10;11.70;;;5.10;99.90;;;;;;5052716;28;20208;-80
2023/12/05 01:36:39;;;;;;;11.03;9.63;;;5.10;99.90;;;;;;5067577;28;20641;-80
2023/12/05 01:39:05;;;;;;;11.97;10.70;;;5.10;99.90;;;;;;5069573;28;20587;-80
2023/12/05 01:41:30;;;;;;;11.17;9.70;;;5.10;99.90;;;;;;5079609;28;20233;-80
2023/12/05 01:43:56;;;;;;;12.00;9.70;;;5.10;99.90;;;;;;5060086;28;20181;-80
2023/12/05 01:46:22;;;;;;;11.30;9.60;;;5.10;99.90;;;;;;5057768;28;20192;-80
2023/12/05 01:48:49;;;;;;;12.90;11.48;;;5.10;99.90;;;;;;5069485;28;20231;-80
2023/12/05 01:51:15;;;;;;;12.82;11.02;;;5.10;99.90;;;;;;5069527;28;20314;-80
2023/12/05 01:53:42;;;;;;;11.32;9.48;;;5.10;99.90;;;;;;5065068;28;20205;-80
2023/12/05 01:56:10;;;;;;;11.45;9.25;;;5.20;99.90;;;;;;5060780;28;20208;-79
2023/12/05 01:58:37;;;;;;;13.02;9.63;;;5.10;99.90;;;;;;5062711;28;20773;-80
2023/12/05 02:01:04;;;;;;;10.30;8.70;;;5.20;99.90;;;;;;5070045;28;20216;-80
2023/12/05 02:03:31;;;;;;;10.18;8.93;;;5.20;99.90;;;;;;5069520;28;20191;-80
2023/12/05 02:05:58;;;;;;;10.75;9.50;;;5.20;99.90;;;;;;5069349;28;20192;-76
2023/12/05 02:08:27;;;;;;;10.88;9.30;;;5.20;99.90;;;;;;5059484;28;20590;-76
2023/12/05 02:11:11;;;;;;;10.55;9.45;;;5.20;99.90;;;;;;5070804;28;20706;-76
2023/12/05 02:13:37;;;;;;;10.93;9.57;;;5.20;99.90;;;;;;5068926;28;20235;-76
2023/12/05 02:16:38;;;;;;;14.23;11.63;;;5.20;99.90;;;;;;5077427;28;20218;-76
2023/12/05 02:19:22;;;;;;;12.18;10.85;;;5.20;99.90;;;;;;5057363;28;20726;-75
2023/12/05 02:21:53;;;;;;;11.23;9.60;;;5.20;99.90;;;;;;5066606;28;20172;-76
2023/12/05 02:24:56;;;;;;;12.20;10.85;;;5.20;99.90;;;;;;5072804;28;20229;-76
2023/12/05 02:27:32;;;;;;;12.15;9.82;;;5.20;99.90;;;;;;5073050;28;20190;-76
2023/12/05 02:29:57;;;;;;;10.85;9.65;;;5.20;99.90;;;;;;5073037;28;20175;-76
2023/12/05 02:32:23;;;;;;;10.00;8.90;;;5.20;99.90;;;;;;5074412;28;20176;-76
2023/12/05 02:34:49;;;;;;;15.47;13.23;;;5.20;99.90;;;;;;5074968;28;20211;-76
2023/12/05 02:37:20;;;;;;;14.30;12.77;;;5.20;99.90;;;;;;5076413;28;20170;-76
2023/12/05 02:40:07;;;;;;;12.65;10.48;;;5.20;99.90;;;;;;5100344;28;20660;-76
2023/12/05 02:42:34;;;;;;;11.52;10.02;;;5.30;99.90;;;;;;5073551;28;20207;-75
2023/12/05 02:45:04;;;;;;;10.07;9.07;;;5.30;99.90;;;;;;5055817;28;20188;-76
2023/12/05 02:47:31;;;;;;;14.80;11.70;;;5.30;99.90;;;;;;5065150;28;20181;-76
2023/12/05 02:49:57;;;;;;;9.18;8.25;;;5.30;99.90;;;;;;5055985;28;20180;-75
2023/12/05 02:52:23;;;;;;;12.00;10.70;;;5.30;99.90;;;;;;5055872;28;20187;-75
2023/12/05 02:54:49;;;;;;;15.40;12.80;;;5.30;99.90;;;;;;5068814;28;20199;-75
2023/12/05 02:57:14;;;;;;;12.57;10.60;;;5.30;99.90;;;;;;5075746;28;20821;-75
2023/12/05 02:59:40;;;;;;;11.10;9.23;;;5.30;99.90;;;;;;5093862;28;20183;-75
2023/12/05 03:02:06;;;;;;;10.87;8.90;;;5.40;99.90;;;;;;5075841;28;20259;-75
2023/12/05 03:04:31;;;;;;;11.87;9.40;;;5.40;99.90;;;;;;5075271;28;20640;-75
2023/12/05 03:06:57;;;;;;;10.57;9.27;;;5.40;99.90;;;;;;5047522;28;20203;-75
2023/12/05 03:09:23;;;;;;;9.20;7.77;;;5.40;99.90;;;;;;5038688;28;20626;-75
2023/12/05 03:11:48;;;;;;;11.47;9.40;;;5.50;99.90;;;;;;5068018;28;20208;-75
2023/12/05 03:14:14;;;;;;;9.53;8.63;;;5.50;99.90;;;;;;5049563;28;20215;-75
2023/12/05 03:16:41;;;;;;;10.57;9.47;;;5.50;99.90;;;;;;5055400;28;20220;-75
2023/12/05 03:19:07;;;;;;;10.05;8.40;;;5.60;99.90;;;;;;5055294;28;20215;-75
2023/12/05 03:21:33;;;;;;;9.10;7.53;;;5.60;99.90;;;;;;5058056;28;20646;-75
2023/12/05 03:23:58;;;;;;;10.07;8.07;;;5.60;99.90;;;;;;5055892;28;20186;-75
2023/12/05 03:26:24;;;;;;;12.13;10.83;;;5.60;99.90;;;;;;5074933;28;20270;-75
2023/12/05 03:28:51;;;;;;;10.83;9.63;;;5.60;99.90;;;;;;5055251;28;20559;-76
2023/12/05 03:31:17;;;;;;;12.93;8.60;;;5.60;99.90;;;;;;5054154;28;20200;-75
2023/12/05 03:33:43;;;;;;;10.02;8.20;;;5.70;99.90;;;;;;5054949;28;20222;-76
2023/12/05 03:36:11;;;;;;;11.93;9.77;;;5.70;99.90;;;;;;5062381;28;20232;-76
2023/12/05 03:38:38;;;;;;;11.38;10.13;;;5.70;99.90;;;;;;5055154;28;20176;-76
2023/12/05 03:41:05;;;;;;;11.80;10.00;;;5.60;99.90;;;;;;5054990;28;20173;-76
2023/12/05 03:43:30;;;;;;;9.63;8.50;;;5.70;99.90;;;;;;5072542;28;20184;-76
2023/12/05 03:45:56;;;;;;;10.47;9.47;;;5.70;99.90;;;;;;5081129;28;20211;-75
2023/12/05 03:48:22;;;;;;;11.00;9.90;;;5.70;99.90;;;;;;5054523;28;20168;-76
2023/12/05 03:50:47;;;;;;;12.80;10.00;;;5.70;99.90;;;;;;5055817;28;20318;-76
2023/12/05 03:53:13;;;;;;;16.40;10.63;;;5.60;99.90;;;;;;5069140;28;20196;-76
2023/12/05 03:55:39;;;;;;;7.93;7.13;;;5.70;99.90;;;;;;5059533;28;20188;-76
2023/12/05 03:58:04;;;;;;;10.27;8.43;;;5.70;99.90;;;;;;5072353;28;20218;-76
2023/12/05 04:00:30;;;;;;;11.50;8.87;;;5.70;99.90;;;;;;5089428;28;20176;-76
2023/12/05 04:02:56;;;;;;;9.17;8.17;;;5.70;99.90;;;;;;5054656;28;20172;-76
2023/12/05 04:05:22;;;;;;;10.07;9.00;;;5.70;99.90;;;;;;5072008;28;21163;-76
2023/12/05 04:07:48;;;;;;;9.87;8.87;;;5.70;99.90;;;;;;5072223;28;20179;-77
2023/12/05 04:10:13;;;;;;;9.23;8.30;;;5.80;99.90;;;;;;5070376;28;20258;-77
2023/12/05 04:12:40;;;;;;;10.40;9.23;;;5.80;99.90;;;;;;5055250;28;21119;-76
2023/12/05 04:15:06;;;;;;;8.25;7.15;;;5.80;99.90;;;;;;5053921;28;20236;-76
2023/12/05 04:17:32;;;;;;;9.50;8.05;;;5.80;99.90;;;;;;5072022;28;20542;-76
2023/12/05 04:19:58;;;;;;;9.53;8.27;;;5.80;99.90;;;;;;5054252;28;20180;-76
2023/12/05 04:22:24;;;;;;;9.00;8.10;;;5.80;99.90;;;;;;5080554;28;20172;-76
2023/12/05 04:24:49;;;;;;;10.30;9.00;;;5.90;99.90;;;;;;5053853;28;20226;-76
2023/12/05 04:27:15;;;;;;;11.30;8.87;;;5.90;99.90;;;;;;5054269;28;20583;-76
2023/12/05 04:29:42;;;;;;;9.03;8.13;;;5.90;99.90;;;;;;5054089;28;20172;-76
2023/12/05 04:32:08;;;;;;;11.23;9.95;;;5.90;99.90;;;;;;5054024;28;20735;-76
2023/12/05 04:34:37;;;;;;;10.80;8.43;;;5.90;99.90;;;;;;5085782;28;20310;-77
2023/12/05 04:37:03;;;;;;;9.43;7.70;;;5.90;99.90;;;;;;5053930;28;20168;-76
2023/12/05 04:39:28;;;;;;;7.33;6.03;;;6.00;99.90;;;;;;5071677;28;20181;-76
2023/12/05 04:41:54;;;;;;;9.50;8.43;;;6.00;99.90;;;;;;5053693;28;20622;-76
2023/12/05 04:44:21;;;;;;;8.83;7.20;;;6.00;99.90;;;;;;5071329;28;20190;-76
2023/12/05 04:46:47;;;;;;;8.77;6.85;;;6.10;99.90;;;;;;5071439;28;20204;-76
2023/12/05 04:49:12;;;;;;;6.73;5.97;;;6.10;99.90;;;;;;5071384;28;20573;-76
2023/12/05 04:51:38;;;;;;;8.43;7.40;;;6.10;99.90;;;;;;5071324;28;20180;-77
2023/12/05 04:54:03;;;;;;;8.03;7.13;;;6.10;99.90;;;;;;5053276;28;20746;-76
2023/12/05 04:56:29;;;;;;;7.43;6.70;;;6.10;99.90;;;;;;5053183;28;20287;-76
2023/12/05 04:58:55;;;;;;;9.93;7.30;;;6.20;99.90;;;;;;5060813;28;20175;-77
2023/12/05 05:01:21;;;;;;;8.50;7.30;;;6.20;99.90;;;;;;5053652;28;20171;-77
2023/12/05 05:03:46;;;;;;;6.53;5.93;;;6.20;99.90;;;;;;5053049;28;20176;-77
2023/12/05 05:06:12;;;;;;;8.77;7.43;;;6.20;99.90;;;;;;5053196;28;20604;-77
2023/12/05 05:08:38;;;;;;;7.90;7.10;;;6.20;99.90;;;;;;5070937;28;20275;-77
2023/12/05 05:11:03;;;;;;;9.00;8.10;;;6.30;99.90;;;;;;5053116;28;20180;-77
2023/12/05 05:13:29;;;;;;;7.30;6.30;;;6.30;99.90;;;;;;5070754;28;20252;-77
2023/12/05 05:15:55;;;;;;;8.27;6.90;;;6.30;99.90;;;;;;5067181;28;20959;-77
2023/12/05 05:18:21;;;;;;;6.97;5.47;;;6.30;99.90;;;;;;5070340;28;20179;-77
2023/12/05 05:20:46;;;;;;;6.27;5.70;;;6.40;99.90;;;;;;5059763;28;20184;-76
2023/12/05 05:23:12;;;;;;;9.23;8.00;;;6.40;99.90;;;;;;5052715;28;20187;-77
2023/12/05 05:25:38;;;;;;;8.20;7.33;;;6.40;99.90;;;;;;5035999;28;20681;-77
2023/12/05 05:28:04;;;;;;;8.10;7.30;;;6.50;99.90;;;;;;5071713;28;20590;-76
2023/12/05 05:30:29;;;;;;;13.00;7.00;;;6.50;99.90;;;;;;5053002;28;20184;-76
2023/12/05 05:32:55;;;;;;;9.63;7.10;;;6.50;99.90;;;;;;5036563;28;20222;-76
2023/12/05 05:35:20;;;;;;;7.67;6.87;;;6.50;99.90;;;;;;5052313;28;20300;-76
2023/12/05 05:37:46;;;;;;;7.10;6.40;;;6.50;99.90;;;;;;5052649;28;20172;-77
2023/12/05 05:40:13;;;;;;;6.60;6.00;;;6.50;99.90;;;;;;5053005;28;20251;-76
2023/12/05 05:42:39;;;;;;;5.65;5.00;;;6.60;99.90;;;;;;5052761;28;20176;-76
2023/12/05 05:45:05;;;;;;;7.60;5.77;;;6.60;99.90;;;;;;5052649;28;20199;-76
2023/12/05 05:47:31;;;;;;;7.15;6.45;;;6.60;99.90;;;;;;5049583;28;20184;-74
2023/12/05 05:49:57;;;;;;;6.20;5.60;;;6.70;99.90;;;;;;5052221;28;20187;-75
2023/12/05 05:52:23;;;;;;;6.72;5.78;;;6.70;99.90;;;;;;5035945;28;20173;-75
2023/12/05 05:54:50;;;;;;;6.47;5.10;;;6.70;99.90;;;;;;5069627;28;20202;-75
2023/12/05 05:57:16;;;;;;;6.43;5.82;;;6.70;99.90;;;;;;5046149;28;20279;-75
2023/12/05 05:59:45;;;;;;;9.60;6.72;;;6.80;99.90;;;;;;5068080;28;20866;-75
2023/12/05 06:02:14;;;;;;;9.05;6.57;;;6.80;99.90;;;;;;5052637;28;20188;-75
2023/12/05 06:04:43;;;;;;;6.28;5.68;;;6.80;99.90;;;;;;5052456;28;20808;-75
2023/12/05 06:07:09;;;;;;;5.38;4.82;;;6.80;99.90;;;;;;5052701;28;20214;-75
2023/12/05 06:09:35;;;;;;;5.37;4.87;;;6.90;99.90;;;;;;5036129;28;20655;-75
2023/12/05 06:12:03;;;;;;;6.93;6.20;;;6.90;99.90;;;;;;5052673;28;20196;-75
2023/12/05 06:14:29;;;;;;;6.78;5.93;;;6.90;99.90;;;;;;5052054;28;20212;-75
2023/12/05 06:16:55;;;;;;;7.33;6.63;;;7.00;99.90;;;;;;5070379;28;20192;-75
2023/12/05 06:19:20;;;;;;;5.77;5.17;;;7.00;99.90;;;;;;5070479;28;20177;-75
2023/12/05 06:21:46;;;;;;;6.07;5.50;;;7.00;99.90;;;;;;5052449;28;20194;-75
2023/12/05 06:24:12;;;;;;;5.17;4.20;;;7.00;99.90;;;;;;5052111;28;20639;-75
2023/12/05 06:26:37;;;;;;;6.00;5.40;;;7.00;99.90;;;;;;5051968;28;20196;-75
2023/12/05 06:29:06;;;;;;;5.30;4.80;;;7.10;99.90;;;;;;5052287;28;21147;-75
2023/12/05 06:31:32;;;;;;;7.00;5.95;;;7.10;99.90;;;;;;5049904;28;20234;-75
2023/12/05 06:33:59;;;;;;;6.32;5.47;;;7.10;99.90;;;;;;5044716;28;20283;-75
2023/12/05 06:36:25;;;;;;;5.60;5.05;;;7.20;99.90;;;;;;5094610;28;20263;-75
2023/12/05 06:38:51;;;;;;;4.90;4.40;;;7.20;99.90;;;;;;5064018;28;20172;-75
2023/12/05 06:41:17;;;;;;;4.53;3.77;;;7.20;99.90;;;;;;5072536;28;20586;-75
2023/12/05 06:43:43;;;;;;;5.50;5.00;;;7.20;99.90;;;;;;5072152;28;21373;-75
2023/12/05 06:46:09;;;;;;;6.43;4.50;;;7.30;99.90;;;;;;5072322;28;20188;-75
2023/12/05 06:48:34;;;;;;;5.57;5.07;;;7.30;99.90;;;;;;5071051;28;21162;-75
2023/12/05 06:51:00;;;;;;;5.23;4.00;;;7.30;99.90;;;;;;5065135;28;20176;-75
2023/12/05 06:53:26;;;;;;;6.53;5.45;;;7.30;99.90;;;;;;5071779;28;20176;-75
2023/12/05 06:55:52;;;;;;;4.80;4.13;;;7.30;99.90;;;;;;5072099;28;20195;-75
2023/12/05 06:58:18;;;;;;;4.90;4.50;;;7.40;99.90;;;;;;5090138;28;20178;-75
2023/12/05 07:00:44;;;;;;;5.38;4.10;;;7.40;99.90;;;;;;5037668;28;20199;-75
2023/12/05 07:03:11;;;;;;;3.57;3.23;;;7.50;99.90;;;;;;5070887;28;20168;-76
2023/12/05 07:05:37;;;;;;;4.45;4.05;;;7.50;99.90;;;;;;5085642;28;20208;-76
2023/12/05 07:08:03;;;;;;;3.70;3.27;;;7.50;99.90;;;;;;5075195;28;20193;-76
2023/12/05 07:10:29;;;;;;;3.42;3.00;;;7.60;99.90;;;;;;5075663;28;20526;-76
2023/12/05 07:12:55;;;;;;;4.33;3.93;;;7.70;99.90;;;;;;5071521;28;20184;-77
2023/12/05 07:15:21;;;;;;;3.97;3.67;;;7.70;99.90;;;;;;5072797;28;20662;-75
2023/12/05 07:17:47;;;;;;;4.90;4.00;;;7.70;99.90;;;;;;5055084;28;20168;-76
2023/12/05 07:20:13;;;;;;;3.80;3.13;;;7.70;99.90;;;;;;5055094;28;20657;-75
2023/12/05 07:22:39;;;;;;;4.15;3.53;;;7.80;99.90;;;;;;5073110;28;20203;-75
2023/12/05 07:25:05;;;;;;;4.40;2.97;;;7.80;99.90;;;;;;5072761;28;20192;-75
2023/12/05 07:27:31;;;;;;;3.72;2.83;;;7.80;99.90;;;;;;5055127;28;20267;-75
2023/12/05 07:29:57;;;;;;;3.00;2.70;;;7.90;99.90;;;;;;5061090;28;20671;-75
2023/12/05 07:32:23;;;;;;;2.77;2.47;;;7.90;99.90;;;;;;5084693;28;20661;-76
2023/12/05 07:34:52;;;;;;;4.40;3.07;;;7.90;99.90;;;;;;5092411;28;20637;-74
2023/12/05 07:37:18;;;;;;;3.47;2.90;;;7.90;99.90;;;;;;5059976;28;20215;-76
2023/12/05 07:39:44;;;;;;;3.85;3.13;;;7.90;99.90;;;;;;5091645;28;20532;-76
2023/12/05 07:42:09;;;;;;;5.17;3.33;;;7.90;99.90;;;;;;5074991;28;20189;-76
2023/12/05 07:44:35;;;;;;;3.47;2.63;;;7.90;99.90;;;;;;5082629;28;20593;-76
2023/12/05 07:47:01;;;;;;;5.47;2.63;;;7.90;99.90;;;;;;5097077;28;20180;-76
2023/12/05 07:49:27;;;;;;;2.90;2.20;;;7.90;99.90;;;;;;5053697;28;20188;-75
2023/12/05 07:51:52;;;;;;;4.93;3.37;;;8.00;99.90;;;;;;5101195;28;20186;-76
2023/12/05 07:54:18;;;;;;;5.10;3.07;;;8.00;99.90;;;;;;5074126;28;20284;-78
2023/12/05 07:56:44;;;;;;;3.90;3.17;;;8.00;99.90;;;;;;5074653;28;20199;-77
2023/12/05 07:59:10;;;;;;;4.80;3.47;;;8.00;99.90;;;;;;5074602;28;20581;-77
2023/12/05 08:01:35;;;;;;;3.90;3.60;;;8.00;99.90;;;;;;5073678;28;20176;-78
2023/12/05 08:04:02;;;;;;;5.63;3.10;;;8.00;99.90;;;;;;5074067;28;20955;-76
2023/12/05 08:06:28;;;;;;;3.92;3.45;;;8.00;99.90;;;;;;5074555;28;20613;-76
2023/12/05 08:08:53;;;;;;;3.73;2.40;;;8.10;99.90;;;;;;5092616;28;20254;-76
2023/12/05 08:11:20;;;;;;;3.00;2.30;;;8.10;99.90;;;;;;5092138;28;20637;-75
2023/12/05 08:13:47;;;;;;;3.22;2.92;;;8.10;99.90;;;;;;5074094;28;20203;-76
2023/12/05 08:16:13;;;;;;;3.15;2.75;;;8.10;99.90;;;;;;5073808;28;20245;-76
2023/12/05 08:18:39;;;;;;;2.97;2.57;;;8.20;99.90;;;;;;5057397;28;20629;-77
2023/12/05 08:21:06;;;;;;;3.97;2.80;;;8.20;99.90;;;;;;5037617;28;20660;-77
2023/12/05 08:23:32;;;;;;;5.07;2.90;;;8.20;99.90;;;;;;5086771;28;20205;-77
2023/12/05 08:25:57;;;;;;;3.00;2.37;;;8.20;99.90;;;;;;5069093;28;20198;-77
2023/12/05 08:28:26;;;;;;;2.47;2.28;;;8.30;99.90;;;;;;5062481;28;20168;-76
2023/12/05 08:30:54;;;;;;;2.93;2.40;;;8.30;99.90;;;;;;5053839;28;20772;-77
2023/12/05 08:33:20;;;;;;;2.60;2.30;;;8.30;99.90;;;;;;5068335;28;20172;-77
2023/12/05 08:35:45;;;;;;;3.20;2.50;;;8.40;99.90;;;;;;5056643;28;20257;-77
2023/12/05 08:38:11;;;;;;;2.83;1.90;;;8.40;99.90;;;;;;5092708;28;20179;-76
2023/12/05 08:40:37;;;;;;;3.03;2.27;;;8.50;99.90;;;;;;5088902;28;20183;-77
2023/12/05 08:43:03;;;;;;;3.00;2.47;;;8.40;99.90;;;;;;5078151;28;20200;-77
2023/12/05 08:45:29;;;;;;;3.00;2.63;;;8.50;99.90;;;;;;5079316;28;20558;-77
2023/12/05 08:47:55;;;;;;;2.80;2.53;;;8.50;99.90;;;;;;5082857;28;20164;-77
2023/12/05 08:50:21;;;;;;;3.00;2.50;;;8.50;99.90;;;;;;5080274;28;20652;-76
2023/12/05 08:52:47;;;;;;;3.92;2.53;;;8.60;99.90;;;;;;5082210;28;20198;-76
2023/12/05 08:55:14;;;;;;;3.58;2.00;;;8.60;99.90;;;;;;5066774;28;20203;-76
2023/12/05 08:57:40;;;;;;;3.50;2.78;;;8.60;99.90;;;;;;5090837;28;20171;-76
2023/12/05 09:00:06;;;;;;;2.88;2.60;;;8.60;99.90;;;;;;5049680;28;20583;-76
2023/12/05 09:02:32;;;;;;;2.70;2.50;;;8.60;99.90;;;;;;5073555;28;20167;-77
2023/12/05 09:05:00;;;;;;;2.70;1.90;;;8.70;99.90;;;;;;5073212;28;20507;-76
2023/12/05 09:07:25;;;;;;;3.63;2.15;;;8.70;99.90;;;;;;5072886;28;20182;-76
2023/12/05 09:09:51;;;;;;;2.37;1.70;;;8.80;99.90;;;;;;5056872;28;20602;-76
2023/12/05 09:12:17;;;;;;;3.50;2.40;;;8.80;99.90;;;;;;5073274;28;20183;-76
2023/12/05 09:14:43;;;;;;;4.17;1.67;;;8.80;99.90;;;;;;5090986;28;20203;-76
2023/12/05 09:17:09;;;;;;;4.80;2.20;;;8.90;99.90;;;;;;5091475;28;20566;-77
2023/12/05 09:19:35;;;;;;;3.78;2.10;;;8.90;99.90;;;;;;5073162;28;20203;-76
2023/12/05 09:22:02;;;;;;;2.60;1.73;;;8.80;99.90;;;;;;5096465;28;20164;-76
2023/12/05 09:24:28;;;;;;;4.28;1.80;;;8.80;99.90;;;;;;5052930;28;20184;-76
2023/12/05 09:26:54;;;;;;;4.20;1.65;;;8.90;99.90;;;;;;5088407;28;20222;-76
2023/12/05 09:29:20;;;;;;;2.50;2.00;;;8.90;99.90;;;;;;5090439;28;20172;-76
2023/12/05 09:31:46;;;;;;;2.80;2.05;;;8.90;99.90;;;;;;5091089;28;20187;-77
2023/12/05 09:34:12;;;;;;;3.67;1.87;;;8.90;99.90;;;;;;5090775;28;20202;-77
2023/12/05 09:36:38;;;;;;;2.63;1.93;;;8.90;99.90;;;;;;5072620;28;20646;-77
2023/12/05 09:39:04;;;;;;;2.53;1.80;;;8.90;99.90;;;;;;5090982;28;20562;-77
2023/12/05 09:41:34;;;;;;;3.67;1.80;;;8.90;99.90;;;;;;5090966;28;20586;-77
2023/12/05 09:44:01;;;;;;;2.70;1.83;;;8.90;99.90;;;;;;5093390;28;20277;-76
2023/12/05 09:46:29;;;;;;;2.08;1.40;;;8.90;99.90;;;;;;5068723;28;20220;-77
2023/12/05 09:48:59;;;;;;;2.72;1.70;;;9.00;99.90;;;;;;5052623;28;20176;-76
2023/12/05 09:51:25;;;;;;;2.60;1.80;;;9.00;99.90;;;;;;5052596;28;20172;-76
2023/12/05 09:53:55;;;;;;;3.93;2.23;;;9.00;99.90;;;;;;5052194;28;20196;-76
2023/12/05 09:56:22;;;;;;;2.42;1.60;;;9.00;99.90;;;;;;5082685;28;21182;-76
2023/12/05 09:58:48;;;;;;;2.28;1.85;;;9.00;99.90;;;;;;5062921;28;20191;-76
2023/12/05 10:01:16;;;;;;;2.65;2.25;;;9.00;99.90;;;;;;5070600;28;20176;-75
2023/12/05 10:03:58;;;;;;;2.50;1.80;;;9.00;99.90;;;;;;5070218;28;20214;-76
2023/12/05 10:06:28;;;;;;;2.58;1.50;;;9.00;99.90;;;;;;5052416;28;20197;-76
2023/12/05 10:08:56;;;;;;;2.33;1.80;;;9.00;99.90;;;;;;5068810;28;20182;-76
2023/12/05 10:11:27;;;;;;;2.90;1.80;;;9.00;99.90;;;;;;5070351;28;20263;-76
2023/12/05 10:13:53;;;;;;;4.63;1.60;;;9.00;99.90;;;;;;5060837;28;20207;-77
2023/12/05 10:16:21;;;;;;;3.70;1.95;;;9.10;99.90;;;;;;5058808;28;20196;-75
2023/12/05 10:18:46;;;;;;;2.60;1.35;;;9.00;99.90;;;;;;5070542;28;20180;-76
2023/12/05 10:21:12;;;;;;;3.87;1.83;;;9.10;99.90;;;;;;5077838;28;20590;-75
2023/12/05 10:23:39;;;;;;;4.47;1.40;;;9.10;99.90;;;;;;5052229;28;20822;-76
2023/12/05 10:26:05;;;;;;;2.42;1.65;;;9.20;99.90;;;;;;5070309;28;20778;-76
2023/12/05 10:28:30;;;;;;;2.88;2.05;;;9.20;99.90;;;;;;5052009;28;20172;-76
2023/12/05 10:30:57;;;;;;;3.20;2.37;;;9.20;99.90;;;;;;5070235;28;20575;-76
2023/12/05 10:33:23;;;;;;;4.00;1.58;;;9.20;99.90;;;;;;5052260;28;20180;-79
2023/12/05 10:35:48;;;;;;;2.53;1.50;;;9.20;99.90;;;;;;5069967;28;20226;-76
2023/12/05 10:38:19;;;;;;;1.83;1.33;;;9.30;99.90;;;;;;5069868;28;20567;-76
2023/12/05 10:40:52;;;;;;;2.25;1.55;;;9.30;99.90;;;;;;5072669;28;20176;-76
2023/12/05 10:43:19;;;;;;;2.28;1.30;;;9.30;99.90;;;;;;5055293;28;20180;-76
2023/12/05 10:45:44;;;;;;;3.63;2.10;;;9.40;99.90;;;;;;5073665;28;20613;-76
2023/12/05 10:48:12;;;;;;;2.00;1.37;;;9.40;99.90;;;;;;5078460;28;20176;-76
2023/12/05 10:50:39;;;;;;;2.50;1.40;;;9.40;99.90;;;;;;5056020;28;20279;-76
2023/12/05 10:53:05;;;;;;;4.00;1.63;;;9.40;99.90;;;;;;5039231;28;20172;-76
2023/12/05 10:55:31;;;;;;;4.22;1.55;;;9.50;99.90;;;;;;5073369;28;20567;-75
2023/12/05 10:57:58;;;;;;;3.53;1.60;;;9.50;99.90;;;;;;5073378;28;20180;-75
2023/12/05 11:00:24;;;;;;;1.70;1.30;;;9.50;99.90;;;;;;5055771;28;20176;-75
2023/12/05 11:02:53;;;;;;;1.97;1.50;;;9.50;99.90;;;;;;5062496;28;20187;-75
2023/12/05 11:05:19;;;;;;;4.00;2.08;;;9.50;99.90;;;;;;5073304;28;20625;-75
2023/12/05 11:07:45;;;;;;;2.93;1.60;;;9.60;99.90;;;;;;5055047;28;20180;-76
2023/12/05 11:10:11;;;;;;;1.70;1.10;;;9.50;99.90;;;;;;5055499;28;20180;-75
2023/12/05 11:12:39;;;;;;;1.60;1.00;;;9.50;99.90;;;;;;5055457;28;20660;-76
2023/12/05 11:15:08;;;;;;;2.67;1.30;;;9.50;99.90;;;;;;5075114;28;20594;-76
2023/12/05 11:17:45;;;;;;;2.35;1.05;;;9.60;99.90;;;;;;5055536;28;20262;-76
2023/12/05 11:20:23;;;;;;;1.50;0.80;;;9.60;99.90;;;;;;5073365;28;20188;-76
2023/12/05 11:23:20;;;;;;;1.40;0.70;;;9.60;99.90;;;;;;5055258;28;20509;-76
2023/12/05 11:25:51;;;;;;;1.63;0.60;;;9.60;99.90;;;;;;5055176;28;20212;-76
2023/12/05 11:28:26;;;;;;;1.88;0.60;;;9.60;99.90;;;;;;5055277;28;20183;-76
2023/12/05 11:31:10;;;;;;;1.20;0.50;;;9.50;99.90;;;;;;5078012;28;20186;-76
2023/12/05 11:34:22;;;;;;;1.30;0.60;;;9.50;99.90;;;;;;5050513;28;20191;-77
2023/12/05 11:37:06;;;;;;;2.03;0.50;;;9.50;99.90;;;;;;5067661;28;20235;-76
2023/12/05 11:39:32;;;;;;;1.90;0.70;;;9.50;99.90;;;;;;5051742;28;20184;-76
2023/12/05 11:42:14;;;;;;;1.70;0.70;;;9.50;99.90;;;;;;5051672;28;20726;-77
2023/12/05 11:44:43;;;;;;;2.97;1.05;;;9.50;99.90;;;;;;5051942;28;20231;-77
2023/12/05 11:47:26;;;;;;;1.85;1.05;;;9.50;99.90;;;;;;5034934;28;20235;-74
2023/12/05 11:49:55;;;;;;;2.20;0.95;;;9.50;99.90;;;;;;5059835;28;20186;-76
2023/12/05 11:52:23;;;;;;;4.10;1.10;;;9.50;99.90;;;;;;5057613;28;20181;-76
2023/12/05 11:54:50;;;;;;;1.77;0.82;;;9.50;99.90;;;;;;5058784;28;20233;-77
2023/12/05 11:57:21;;;;;;;1.70;0.80;;;9.50;99.90;;;;;;5053285;28;20586;-77
2023/12/05 11:59:48;;;;;;;1.35;0.70;;;9.50;99.90;;;;;;5062734;28;20397;-77
2023/12/05 12:02:18;;;;;;;2.08;0.80;;;9.60;99.90;;;;;;5052636;28;20696;-76
2023/12/05 12:04:47;;;;;;;2.03;0.70;;;9.60;99.90;;;;;;5052425;28;20526;-77
2023/12/05 12:07:13;;;;;;;1.77;0.60;;;9.60;99.90;;;;;;5051290;28;20173;-77
2023/12/05 12:09:42;;;;;;;3.80;1.40;;;9.60;99.90;;;;;;5051104;28;20195;-77
2023/12/05 12:12:08;;;;;;;1.50;0.60;;;9.50;99.90;;;;;;5051066;28;20234;-77
2023/12/05 12:14:34;;;;;;;1.70;0.70;;;9.60;99.90;;;;;;5053934;28;20291;-77
2023/12/05 12:17:04;;;;;;;1.67;0.70;;;9.60;99.90;;;;;;5060531;28;20823;-77
2023/12/05 12:19:30;;;;;;;5.32;1.10;;;9.60;99.90;;;;;;5056311;28;20180;-77
2023/12/05 12:21:55;;;;;;;2.67;1.30;;;9.60;99.90;;;;;;5055207;28;20260;-77
2023/12/05 12:24:24;;;;;;;2.07;0.90;;;9.60;99.90;;;;;;5060287;28;21159;-75
2023/12/05 12:26:55;;;;;;;1.80;0.80;;;9.50;99.90;;;;;;5051963;28;20201;-75
2023/12/05 12:29:21;;;;;;;1.27;0.55;;;9.60;99.90;;;;;;5051858;28;20185;-76
2023/12/05 12:31:54;;;;;;;1.50;0.65;;;9.50;99.90;;;;;;5061591;28;20184;-75
2023/12/05 12:34:27;;;;;;;1.20;0.60;;;9.60;99.90;;;;;;5050529;28;20316;-76
2023/12/05 12:36:54;;;;;;;1.67;0.60;;;9.60;99.90;;;;;;5053570;28;20245;-76
2023/12/05 12:39:21;;;;;;;1.25;0.55;;;9.60;99.90;;;;;;5079008;28;20167;-76
2023/12/05 12:41:47;;;;;;;1.20;0.60;;;9.60;99.90;;;;;;5054062;28;20619;-76
2023/12/05 12:44:13;;;;;;;1.40;0.60;;;9.60;99.90;;;;;;5053622;28;20164;-76
2023/12/05 12:46:42;;;;;;;2.70;0.60;;;9.60;99.90;;;;;;5086769;28;20196;-76
2023/12/05 12:49:09;;;;;;;1.55;0.60;;;9.60;99.90;;;;;;5071407;28;20614;-76
2023/12/05 12:51:38;;;;;;;1.55;0.60;;;9.60;99.90;;;;;;5077295;28;20187;-76
2023/12/05 12:54:05;;;;;;;4.05;0.60;;;9.60;99.90;;;;;;5070067;28;20657;-76